Latest Weather Observations for Darwin Airport

IDD60901

Issued at 6:15 pm CST Friday 28 November 2014 (issued every 10 minutes, with the page automatically refreshed every 10 minutes)

About weather observations | Map of Darwin area stations | Latest observations for Darwin area | Other Formats
Station Details ID: 014015 Name: DARWIN AIRPORT Lat: -12.42 Lon: 130.89 Height: 30.4 m
Data from the previous 72 hours. | See also: Recent months at Darwin Airport
Date/Time
CST
Tmp

°C
App
Tmp
°C
Dew
Point
°C
Rel
Hum
%
Delta-T

°C
Wind Press
QNH
hPa
Press
MSL
hPa
Rain
since
9 am
mm
Dir
 
Spd
km/h
Gust
km/h
Spd
kts
Gust
kts
28/06:00pm 29.4 31.8 21.5 62 5.3 S 11 13 6 7 1006.6 1006.3 0.4
28/05:30pm 29.2 32.5 23.2 70 4.1 S 11 13 6 7 1006.4 - 0.4
28/05:00pm 29.6 32.9 23.2 68 4.4 S 11 15 6 8 1006.3 - 0.4
28/04:30pm 29.5 32.2 22.9 67 4.5 SSW 13 17 7 9 1006.3 - 0.4
28/04:00pm 29.1 32.5 23.4 71 3.9 S 11 15 6 8 1006.5 - 0.4
28/03:30pm 28.7 31.1 23.0 71 3.9 S 15 19 8 10 1006.8 - 0.4
28/03:00pm 28.9 31.0 22.4 68 4.4 S 15 26 8 14 1007.2 1006.9 0.4
28/02:30pm 28.9 31.1 23.2 71 3.9 SSW 17 26 9 14 1007.2 - 0.4
28/02:00pm 28.3 29.3 23.5 75 3.3 S 24 30 13 16 1007.7 - 0.4
28/01:30pm 27.8 29.7 23.7 78 2.8 S 20 26 11 14 1008.4 - 0.4
28/01:00pm 27.7 30.4 24.1 81 2.5 SSW 17 22 9 12 1008.8 - 0.4
28/12:30pm 28.0 31.4 24.7 82 2.3 SSW 15 19 8 10 1009.2 - 0.4
28/12:00pm 27.4 30.7 25.1 87 1.6 SSW 17 20 9 11 1009.7 1009.4 0.4
28/11:30am 27.9 30.8 24.5 82 2.4 SSW 17 22 9 12 1010.2 - 0.0
28/11:00am 28.6 32.2 24.4 78 2.9 SSW 13 19 7 10 1010.6 - 0.0
28/10:30am 28.2 32.8 24.8 82 2.4 SSE 9 11 5 6 1011.0 - 0.0
28/10:00am 26.5 30.6 24.6 89 1.3 S 11 15 6 8 1011.2 - 0.0
28/09:30am 25.7 30.6 24.4 92 0.9 ESE 6 9 3 5 1010.8 - 0.0
28/09:00am 25.0 28.6 24.3 96 0.5 ESE 13 17 7 9 1011.0 1010.7 102.4
28/08:30am 24.9 28.1 24.3 96 0.4 S 15 19 8 10 1011.0 - 102.4
28/08:00am 24.7 29.3 24.1 96 0.4 SSE 7 11 4 6 1010.2 - 102.4
28/07:30am 24.3 27.5 23.7 96 0.4 SE 13 15 7 8 1010.2 - 102.2
28/06:59am 24.1 27.6 23.5 96 0.4 SSE 11 13 6 7 1009.8 - 101.8
28/06:30am 24.0 27.5 23.6 98 0.3 SE 11 13 6 7 1009.9 - 100.0
28/06:15am 24.0 27.5 23.6 98 0.3 SSE 11 13 6 7 1009.5 - 99.0
28/06:00am 23.9 27.3 23.3 96 0.4 SE 11 13 6 7 1009.3 1009.0 98.2
28/05:30am 23.7 26.6 23.1 96 0.4 SSE 13 17 7 9 1009.0 - 98.0
28/05:00am 24.0 26.8 23.6 98 0.3 ENE 15 17 8 9 1008.9 - 97.0
28/04:44am 23.9 27.6 23.2 96 0.5 ENE 9 11 5 6 1009.0 - 96.2
28/04:30am 24.0 25.9 23.4 96 0.4 E 19 22 10 12 1009.1 - 92.0
28/04:00am 24.0 27.4 23.3 96 0.5 ESE 11 15 6 8 1009.0 - 72.0
28/03:30am 24.9 28.3 24.0 95 0.6 N 13 24 7 13 1008.4 - 53.6
28/03:24am 25.4 28.3 24.5 95 0.6 N 17 24 9 13 1008.4 - 46.8
28/03:00am 26.3 30.4 25.2 94 0.8 SSW 13 15 7 8 1008.2 1007.9 45.2
28/02:30am 26.1 29.8 25.2 95 0.6 SSW 15 17 8 9 1008.5 - 45.2
28/02:00am 25.9 30.6 24.9 94 0.7 SSW 9 11 5 6 1008.1 - 45.2
28/01:30am 25.9 30.5 24.7 93 0.8 SW 9 13 5 7 1008.6 - 44.8
28/01:00am 26.0 30.4 25.0 94 0.7 WSW 11 13 6 7 1009.0 - 44.8
28/12:30am 26.0 29.7 25.1 95 0.6 WSW 15 20 8 11 1009.2 - 44.8
28/12:00am 26.4 30.3 25.4 94 0.7 WSW 15 17 8 9 1009.4 1009.1 44.8
 
Date/Time
CST
Tmp

°C
App
Tmp
°C
Dew
Point
°C
Rel
Hum
%
Delta-T

°C
Wind Press
QNH
hPa
Press
MSL
hPa
Rain
since
9 am
mm
Dir
 
Spd
km/h
Gust
km/h
Spd
kts
Gust
kts
27/11:30pm 25.7 30.6 25.3 98 0.3 SSW 9 11 5 6 1009.4 - 44.8
27/11:14pm 25.6 29.9 25.5 99 0.1 SW 13 17 7 9 1009.5 - 44.8
27/11:00pm 25.6 31.2 25.5 99 0.1 NE 6 15 3 8 1009.5 - 44.8
27/10:50pm 25.7 30.3 25.4 98 0.2 N 11 17 6 9 1009.6 - 40.0
27/10:46pm 25.6 29.8 25.3 98 0.2 NNW 13 17 7 9 1009.5 - 38.2
27/10:30pm 25.8 29.1 24.5 92 0.9 WSW 15 20 8 11 1009.3 - 37.4
27/10:14pm 25.0 25.9 24.0 94 0.7 NNW 26 37 14 20 1009.6 - 22.2
27/10:11pm 25.4 26.8 23.5 89 1.3 NNW 22 33 12 18 1009.4 - 18.8
27/10:00pm 27.2 31.3 25.8 92 1.0 NW 15 22 8 12 1009.0 - 10.0
27/09:55pm 27.5 31.2 25.7 90 1.3 WNW 17 22 9 12 1009.2 - 4.2
27/09:42pm 28.1 30.2 25.4 85 1.9 NW 24 32 13 17 1009.0 - 1.0
27/09:37pm 28.8 30.7 25.0 80 2.7 NW 24 33 13 18 1009.0 - 0.0
27/09:30pm 29.8 30.9 24.4 73 3.8 NW 26 33 14 18 1008.7 - 0.0
27/09:00pm 30.1 31.9 24.2 70 4.1 NW 22 30 12 16 1008.4 1008.1 0.0
27/08:30pm 30.2 32.4 24.3 70 4.1 NW 20 28 11 15 1008.0 - 0.0
27/08:00pm 30.3 32.3 22.9 64 5.1 N 17 20 9 11 1007.6 - 0.0
27/07:30pm 30.8 31.3 20.9 55 6.6 N 19 24 10 13 1007.6 - 0.0
27/07:00pm 31.3 31.7 19.8 50 7.6 NNE 17 20 9 11 1007.3 - 0.0
27/06:30pm 31.8 31.6 19.7 48 8.0 N 20 28 11 15 1006.9 - 0.0
27/06:00pm 32.0 32.0 20.1 49 7.9 NNE 20 30 11 16 1006.5 1006.2 0.0
27/05:30pm 32.4 32.7 20.8 50 7.8 N 20 26 11 14 1006.1 - 0.0
27/05:00pm 33.4 34.3 21.6 50 8.0 N 19 26 10 14 1005.6 - 0.0
27/04:30pm 32.9 35.8 23.2 56 6.7 NW 13 19 7 10 1005.8 - 0.0
27/04:00pm 32.4 34.9 23.8 60 6.0 WNW 17 20 9 11 1006.0 - 0.0
27/03:30pm 31.9 34.2 23.4 60 5.9 W 17 24 9 13 1006.2 - 0.0
27/03:00pm 32.1 33.9 23.6 60 5.9 W 20 28 11 15 1006.6 1006.3 0.0
27/02:30pm 33.0 34.7 23.0 55 6.9 WNW 19 26 10 14 1006.9 - 0.0
27/02:00pm 32.3 33.7 22.9 57 6.5 W 20 28 11 15 1007.1 - 0.0
27/01:30pm 32.3 33.8 23.0 58 6.4 W 20 30 11 16 1007.6 - 0.0
27/01:00pm 31.9 33.3 22.6 58 6.4 W 19 28 10 15 1008.0 - 0.0
27/12:30pm 32.1 32.5 22.5 57 6.6 WSW 24 28 13 15 1008.4 - 0.0
27/12:00pm 32.7 35.6 21.0 50 7.9 E 7 15 4 8 1008.8 1008.5 0.0
27/11:30am 31.9 34.6 20.7 51 7.5 N 7 11 4 6 1009.1 - 0.0
27/11:00am 32.1 33.7 20.8 51 7.6 NNE 13 17 7 9 1009.6 - 0.0
27/10:30am 31.8 33.6 20.4 51 7.6 NNE 11 15 6 8 1010.2 - 0.0
27/10:00am 31.3 32.9 20.8 53 7.0 NNE 13 19 7 10 1010.3 - 0.0
27/09:30am 30.6 33.3 21.4 58 6.2 E 9 19 5 10 1010.3 - 0.0
27/09:00am 30.6 33.6 22.7 62 5.4 ENE 11 17 6 9 1010.2 1009.9 4.8
27/08:30am 29.4 32.5 22.8 67 4.5 ENE 11 15 6 8 1009.8 - 4.8
27/08:00am 29.1 32.3 23.0 69 4.2 E 11 13 6 7 1009.9 - 4.8
27/07:30am 27.8 31.3 23.6 78 2.9 E 11 13 6 7 1009.3 - 4.8
27/07:00am 26.7 30.9 24.1 86 1.8 E 9 9 5 5 1008.9 - 4.6
27/06:30am 26.2 30.6 24.5 90 1.2 ESE 9 11 5 6 1008.7 - 4.6
27/06:00am 26.0 30.4 24.4 91 1.1 E 9 11 5 6 1008.3 1008.0 4.6
27/05:30am 26.2 30.5 24.2 89 1.4 ESE 9 11 5 6 1008.0 - 4.6
27/05:00am 26.7 31.5 24.2 86 1.7 ESE 6 7 3 4 1007.8 - 4.6
27/04:30am 26.7 30.9 24.1 86 1.8 ENE 9 11 5 6 1007.6 - 4.6
27/04:00am 26.8 31.1 24.2 86 1.8 E 9 11 5 6 1007.4 - 4.6
27/03:30am 27.0 31.6 24.1 84 2.0 N 7 9 4 5 1007.3 - 4.6
27/03:00am 27.4 33.2 23.9 81 2.4 CALM 0 7 0 4 1007.3 1007.0 4.6
27/02:30am 27.1 31.7 24.2 84 2.0 ENE 7 9 4 5 1007.5 - 4.6
27/02:00am 27.3 30.9 24.3 84 2.1 NE 13 15 7 8 1007.7 - 4.6
27/01:30am 27.4 30.8 24.1 82 2.3 ENE 13 13 7 7 1008.1 - 4.6
27/01:00am 27.5 32.1 24.8 85 1.9 NNE 9 11 5 6 1008.3 - 4.6
27/12:30am 27.9 32.1 24.1 80 2.6 N 9 9 5 5 1008.5 - 4.6
27/12:00am 27.4 32.0 24.8 86 1.8 N 9 11 5 6 1008.9 1008.6 4.6
 
Date/Time
CST
Tmp

°C
App
Tmp
°C
Dew
Point
°C
Rel
Hum
%
Delta-T

°C
Wind Press
QNH
hPa
Press
MSL
hPa
Rain
since
9 am
mm
Dir
 
Spd
km/h
Gust
km/h
Spd
kts
Gust
kts
26/11:30pm 27.2 31.7 24.6 86 1.8 N 9 9 5 5 1008.9 - 4.6
26/11:00pm 27.3 31.7 24.4 84 2.0 N 9 9 5 5 1009.0 - 4.6
26/10:30pm 27.9 32.4 24.6 82 2.3 NNW 9 9 5 5 1008.8 - 4.6
26/10:00pm 28.5 32.4 24.2 77 3.0 NW 11 15 6 8 1008.5 - 4.6
26/09:30pm 28.5 32.3 24.0 76 3.1 NNW 11 15 6 8 1008.3 - 4.6
26/09:00pm 28.7 32.0 23.8 75 3.4 NNW 13 17 7 9 1007.9 1007.6 4.6
26/08:30pm 28.7 31.8 24.2 76 3.1 NNW 15 20 8 11 1007.6 - 4.6
26/08:00pm 28.7 31.2 23.8 75 3.4 NNW 17 24 9 13 1006.9 - 4.6
26/07:30pm 28.9 31.0 23.8 74 3.5 NNW 19 26 10 14 1006.5 - 4.6
26/07:00pm 29.1 31.1 23.9 73 3.6 NNW 20 24 11 13 1005.9 - 4.6
26/06:30pm 29.9 33.3 25.2 76 3.3 N 17 26 9 14 1005.9 - 4.6
26/06:00pm 30.1 33.0 23.9 69 4.3 N 15 19 8 10 1005.7 1005.4 4.6
26/05:30pm 30.9 32.7 22.6 61 5.7 N 17 20 9 11 1005.6 - 4.6
26/05:00pm 31.2 33.2 22.9 61 5.7 NNE 17 20 9 11 1005.5 - 4.6
26/04:30pm 31.2 34.0 23.6 64 5.3 NNE 15 19 8 10 1005.4 - 4.6
26/04:00pm 30.2 32.3 23.1 65 4.9 NE 17 22 9 12 1005.5 - 4.6
26/03:30pm 29.6 31.8 22.6 66 4.8 ENE 15 17 8 9 1005.6 - 4.6
26/03:00pm 28.6 32.6 23.1 72 3.8 NNE 7 9 4 5 1006.1 1005.8 4.6
26/02:30pm 27.9 31.3 23.4 76 3.1 N 11 15 6 8 1006.5 - 4.6
26/02:00pm 25.4 26.6 22.1 82 2.2 N 19 26 10 14 1007.0 - 4.6
26/01:36pm 25.9 24.1 22.3 80 2.4 NW 35 41 19 22 1007.4 - 4.4
26/01:30pm 24.4 21.8 22.9 91 1.0 N 41 61 22 33 1007.4 - 4.4
26/01:28pm 24.6 23.2 23.6 94 0.7 N 37 56 20 30 1007.3 - 3.6
26/01:25pm 24.6 23.8 23.3 92 0.9 N 33 44 18 24 1007.4 - 2.0
26/01:19pm 25.9 24.2 23.7 88 1.5 NE 39 48 21 26 1007.3 - 0.0
26/01:17pm 26.6 24.7 23.4 82 2.2 NE 39 48 21 26 1007.3 - 0.0
26/01:13pm 29.6 29.8 23.5 69 4.2 N 28 44 15 24 1007.0 - 0.0
26/01:10pm 30.9 33.5 24.0 66 4.8 N 17 24 9 13 1007.0 - 0.0
26/01:06pm 32.0 34.0 22.9 58 6.3 WNW 17 26 9 14 1006.8 - 0.0
26/01:00pm 32.6 35.5 23.2 57 6.5 WNW 13 26 7 14 1006.7 - 0.0
26/12:30pm 31.8 34.4 23.9 63 5.5 W 17 19 9 10 1007.4 - 0.0
26/12:00pm 32.2 36.0 22.4 56 6.7 ENE 6 11 3 6 1008.0 1007.7 0.0
26/11:30am 31.2 35.4 23.2 62 5.5 E 6 11 3 6 1008.4 - 0.0
26/11:00am 31.3 34.6 23.8 64 5.2 NNE 13 19 7 10 1008.8 - 0.0
26/10:30am 30.5 33.5 24.0 68 4.5 ENE 15 24 8 13 1009.2 - 0.0
26/10:00am 29.8 32.4 24.0 71 4.0 NE 17 20 9 11 1009.3 - 0.0
26/09:30am 28.7 31.6 23.8 75 3.4 ENE 15 19 8 10 1009.4 - 0.0
26/09:00am 28.0 30.9 23.8 78 2.9 E 15 19 8 10 1009.4 1009.1 14.4
26/08:30am 27.9 30.4 23.2 75 3.2 E 15 19 8 10 1009.3 - 14.4
26/08:00am 26.7 29.1 23.0 80 2.5 E 15 19 8 10 1008.7 - 14.4
26/07:30am 26.0 29.0 23.4 85 1.8 ENE 13 15 7 8 1008.2 - 14.4
26/07:00am 25.4 29.1 23.2 88 1.5 ENE 9 13 5 7 1008.0 - 14.4
26/06:30am 25.0 28.5 23.5 91 1.0 E 11 13 6 7 1007.4 - 14.4
26/06:00am 25.0 28.0 23.4 91 1.1 E 13 15 7 8 1007.2 1006.9 14.4
26/05:30am 25.0 28.4 23.4 91 1.1 E 11 15 6 8 1006.8 - 14.4
26/05:00am 25.1 28.1 23.3 90 1.2 E 13 15 7 8 1006.6 - 14.4
26/04:30am 25.0 28.6 23.7 92 0.9 E 11 15 6 8 1006.7 - 14.4
26/04:00am 25.3 29.3 23.7 91 1.1 ESE 9 11 5 6 1006.6 - 14.4
26/03:30am 25.2 28.2 23.4 90 1.2 ESE 13 15 7 8 1006.7 - 14.4
26/03:00am 25.2 28.0 23.6 91 1.1 E 15 19 8 10 1006.9 1006.6 14.4
26/02:30am 25.3 27.7 23.7 91 1.1 ESE 17 19 9 10 1007.3 - 14.4
26/02:00am 25.2 28.4 23.7 91 1.0 E 13 15 7 8 1007.3 - 14.4
26/01:30am 25.4 28.9 23.6 90 1.2 SE 11 13 6 7 1007.4 - 14.4
26/01:00am 25.4 29.3 24.2 93 0.8 SE 11 15 6 8 1007.6 - 14.4
26/12:30am 25.6 29.2 24.4 93 0.8 SE 13 17 7 9 1008.2 - 14.4
26/12:00am 25.7 30.1 24.5 93 0.8 SE 9 11 5 6 1008.2 1007.9 14.4
 
Date/Time
CST
Tmp

°C
App
Tmp
°C
Dew
Point
°C
Rel
Hum
%
Delta-T

°C
Wind Press
QNH
hPa
Press
MSL
hPa
Rain
since
9 am
mm
Dir
 
Spd
km/h
Gust
km/h
Spd
kts
Gust
kts
25/11:30pm 25.7 30.5 24.5 93 0.8 SSE 7 9 4 5 1008.5 - 14.4
25/11:00pm 25.7 30.5 24.4 92 0.9 SSE 7 9 4 5 1008.5 - 14.4
25/10:30pm 25.4 29.7 24.2 93 0.8 SE 9 11 5 6 1008.4 - 14.4
25/10:00pm 25.3 29.2 24.3 94 0.7 SSE 11 15 6 8 1008.5 - 14.4
25/09:30pm 25.5 30.2 24.3 93 0.8 E 7 9 4 5 1008.0 - 14.4
25/09:00pm 25.4 31.2 23.9 91 1.0 CALM 0 0 0 0 1008.0 1007.7 14.4
25/08:30pm 24.9 28.9 23.7 93 0.8 NNE 9 15 5 8 1007.7 - 14.4
25/08:00pm 24.7 28.5 23.5 93 0.8 NE 9 11 5 6 1007.5 - 14.4
25/07:30pm 24.6 28.0 23.3 92 0.9 NE 11 15 6 8 1007.0 - 14.4
25/07:00pm 25.1 28.2 24.2 95 0.6 NE 15 19 8 10 1006.8 - 14.4
25/06:30pm 25.1 28.8 23.9 93 0.8 NE 11 13 6 7 1006.7 - 14.2

Latest Capital City Observations: Canberra | Sydney | Melbourne | Brisbane | Adelaide | Perth | Hobart | Darwin

Other Formats:

Comma delimited format used in spreadsheet applications
http://www.bom.gov.au/fwo/IDD60901/IDD60901.94120.axf

JavaScript Object Notation format (JSON) in row-major order
http://www.bom.gov.au/fwo/IDD60901/IDD60901.94120.json